sensor_id;sensor_type;location;lat;lon;timestamp;P1;durP1;ratioP1;P2;durP2;ratioP2
49502;SDS011;35409;48.776;9.204;2023-05-10T00:01:37;0.80;;;0.80;;
49502;SDS011;35409;48.776;9.204;2023-05-10T00:04:03;2.60;;;0.82;;
49502;SDS011;35409;48.776;9.204;2023-05-10T00:06:28;1.08;;;0.98;;
49502;SDS011;35409;48.776;9.204;2023-05-10T00:08:54;2.25;;;0.95;;
49502;SDS011;35409;48.776;9.204;2023-05-10T00:11:20;2.58;;;1.00;;
49502;SDS011;35409;48.776;9.204;2023-05-10T00:13:46;1.13;;;0.88;;
49502;SDS011;35409;48.776;9.204;2023-05-10T00:16:12;2.85;;;0.98;;
49502;SDS011;35409;48.776;9.204;2023-05-10T00:18:38;0.70;;;0.60;;
49502;SDS011;35409;48.776;9.204;2023-05-10T00:21:04;0.88;;;0.68;;
49502;SDS011;35409;48.776;9.204;2023-05-10T00:23:30;1.77;;;0.40;;
49502;SDS011;35409;48.776;9.204;2023-05-10T00:25:55;0.85;;;0.50;;
49502;SDS011;35409;48.776;9.204;2023-05-10T00:28:21;2.55;;;0.30;;
49502;SDS011;35409;48.776;9.204;2023-05-10T00:30:47;3.20;;;0.40;;
49502;SDS011;35409;48.776;9.204;2023-05-10T00:33:12;0.30;;;0.30;;
49502;SDS011;35409;48.776;9.204;2023-05-10T00:35:38;0.98;;;0.20;;
49502;SDS011;35409;48.776;9.204;2023-05-10T00:38:04;1.55;;;0.30;;
49502;SDS011;35409;48.776;9.204;2023-05-10T00:40:29;1.20;;;0.40;;
49502;SDS011;35409;48.776;9.204;2023-05-10T00:42:55;0.35;;;0.30;;
49502;SDS011;35409;48.776;9.204;2023-05-10T00:45:22;0.40;;;0.40;;
49502;SDS011;35409;48.776;9.204;2023-05-10T00:47:47;0.47;;;0.20;;
49502;SDS011;35409;48.776;9.204;2023-05-10T00:50:14;0.93;;;0.30;;
49502;SDS011;35409;48.776;9.204;2023-05-10T00:52:40;0.10;;;0.10;;
49502;SDS011;35409;48.776;9.204;2023-05-10T00:55:07;0.70;;;0.15;;
49502;SDS011;35409;48.776;9.204;2023-05-10T00:57:35;0.40;;;0.30;;
49502;SDS011;35409;48.776;9.204;2023-05-10T01:00:01;0.30;;;0.30;;
49502;SDS011;35409;48.776;9.204;2023-05-10T01:02:27;0.20;;;0.20;;
49502;SDS011;35409;48.776;9.204;2023-05-10T01:04:53;1.25;;;0.32;;
49502;SDS011;35409;48.776;9.204;2023-05-10T01:07:19;0.10;;;0.10;;
49502;SDS011;35409;48.776;9.204;2023-05-10T01:13:07;0.57;;;0.20;;
49502;SDS011;35409;48.776;9.204;2023-05-10T01:15:32;0.98;;;0.40;;
49502;SDS011;35409;48.776;9.204;2023-05-10T01:17:58;0.30;;;0.30;;
49502;SDS011;35409;48.776;9.204;2023-05-10T01:20:25;0.10;;;0.10;;
49502;SDS011;35409;48.776;9.204;2023-05-10T01:32:02;0.20;;;0.13;;
49502;SDS011;35409;48.776;9.204;2023-05-10T01:37:32;0.75;;;0.63;;
49502;SDS011;35409;48.776;9.204;2023-05-10T01:40:19;2.40;;;0.25;;
49502;SDS011;35409;48.776;9.204;2023-05-10T01:42:52;0.32;;;0.20;;
49502;SDS011;35409;48.776;9.204;2023-05-10T01:45:27;1.90;;;0.20;;
49502;SDS011;35409;48.776;9.204;2023-05-10T01:50:35;0.10;;;0.10;;
49502;SDS011;35409;48.776;9.204;2023-05-10T01:53:03;0.60;;;0.20;;
49502;SDS011;35409;48.776;9.204;2023-05-10T01:55:33;0.20;;;0.20;;
49502;SDS011;35409;48.776;9.204;2023-05-10T01:58:06;0.25;;;0.10;;
49502;SDS011;35409;48.776;9.204;2023-05-10T02:03:01;0.22;;;0.22;;
49502;SDS011;35409;48.776;9.204;2023-05-10T02:05:31;0.55;;;0.35;;
49502;SDS011;35409;48.776;9.204;2023-05-10T02:07:58;0.32;;;0.30;;
49502;SDS011;35409;48.776;9.204;2023-05-10T02:10:25;0.52;;;0.43;;
49502;SDS011;35409;48.776;9.204;2023-05-10T02:12:52;1.95;;;0.30;;
49502;SDS011;35409;48.776;9.204;2023-05-10T02:15:22;0.25;;;0.20;;
49502;SDS011;35409;48.776;9.204;2023-05-10T02:17:49;0.20;;;0.20;;
49502;SDS011;35409;48.776;9.204;2023-05-10T02:20:16;0.28;;;0.25;;
49502;SDS011;35409;48.776;9.204;2023-05-10T02:22:44;0.43;;;0.40;;
49502;SDS011;35409;48.776;9.204;2023-05-10T02:25:12;0.35;;;0.35;;
49502;SDS011;35409;48.776;9.204;2023-05-10T02:27:39;0.30;;;0.30;;
49502;SDS011;35409;48.776;9.204;2023-05-10T02:30:08;0.52;;;0.52;;
49502;SDS011;35409;48.776;9.204;2023-05-10T02:32:35;4.32;;;0.40;;
49502;SDS011;35409;48.776;9.204;2023-05-10T02:35:02;0.20;;;0.20;;
49502;SDS011;35409;48.776;9.204;2023-05-10T02:37:30;0.55;;;0.30;;
49502;SDS011;35409;48.776;9.204;2023-05-10T02:39:57;0.32;;;0.32;;
49502;SDS011;35409;48.776;9.204;2023-05-10T02:42:25;0.60;;;0.50;;
49502;SDS011;35409;48.776;9.204;2023-05-10T02:44:53;1.88;;;0.45;;
49502;SDS011;35409;48.776;9.204;2023-05-10T02:47:25;1.75;;;0.50;;
49502;SDS011;35409;48.776;9.204;2023-05-10T02:49:51;0.47;;;0.47;;
49502;SDS011;35409;48.776;9.204;2023-05-10T02:52:19;0.40;;;0.40;;
49502;SDS011;35409;48.776;9.204;2023-05-10T02:54:50;0.40;;;0.40;;
49502;SDS011;35409;48.776;9.204;2023-05-10T02:57:22;1.25;;;0.47;;
49502;SDS011;35409;48.776;9.204;2023-05-10T02:59:54;0.95;;;0.40;;
49502;SDS011;35409;48.776;9.204;2023-05-10T03:02:20;0.47;;;0.40;;
49502;SDS011;35409;48.776;9.204;2023-05-10T03:04:45;0.22;;;0.22;;
49502;SDS011;35409;48.776;9.204;2023-05-10T03:07:11;0.38;;;0.38;;
49502;SDS011;35409;48.776;9.204;2023-05-10T03:09:37;0.40;;;0.40;;
49502;SDS011;35409;48.776;9.204;2023-05-10T03:20:12;0.47;;;0.40;;
49502;SDS011;35409;48.776;9.204;2023-05-10T03:22:54;3.60;;;0.55;;
49502;SDS011;35409;48.776;9.204;2023-05-10T03:25:25;1.10;;;0.73;;
49502;SDS011;35409;48.776;9.204;2023-05-10T03:27:51;0.40;;;0.40;;
49502;SDS011;35409;48.776;9.204;2023-05-10T03:30:18;0.82;;;0.47;;
49502;SDS011;35409;48.776;9.204;2023-05-10T03:32:44;0.35;;;0.30;;
49502;SDS011;35409;48.776;9.204;2023-05-10T03:35:11;0.47;;;0.45;;
49502;SDS011;35409;48.776;9.204;2023-05-10T03:37:38;0.45;;;0.40;;
49502;SDS011;35409;48.776;9.204;2023-05-10T03:40:04;1.10;;;0.35;;
49502;SDS011;35409;48.776;9.204;2023-05-10T03:42:30;0.73;;;0.73;;
49502;SDS011;35409;48.776;9.204;2023-05-10T03:44:56;1.13;;;0.55;;
49502;SDS011;35409;48.776;9.204;2023-05-10T03:47:22;0.80;;;0.75;;
49502;SDS011;35409;48.776;9.204;2023-05-10T03:49:47;1.35;;;0.55;;
49502;SDS011;35409;48.776;9.204;2023-05-10T03:52:13;1.02;;;0.68;;
49502;SDS011;35409;48.776;9.204;2023-05-10T03:54:39;1.65;;;0.93;;
49502;SDS011;35409;48.776;9.204;2023-05-10T03:57:05;2.08;;;0.60;;
49502;SDS011;35409;48.776;9.204;2023-05-10T03:59:30;1.20;;;0.80;;
49502;SDS011;35409;48.776;9.204;2023-05-10T04:01:56;1.65;;;1.00;;
49502;SDS011;35409;48.776;9.204;2023-05-10T04:04:21;2.75;;;1.13;;
49502;SDS011;35409;48.776;9.204;2023-05-10T04:06:48;0.70;;;0.65;;
49502;SDS011;35409;48.776;9.204;2023-05-10T04:09:13;2.72;;;1.23;;
49502;SDS011;35409;48.776;9.204;2023-05-10T04:11:39;1.10;;;1.00;;
49502;SDS011;35409;48.776;9.204;2023-05-10T04:14:05;1.42;;;1.33;;
49502;SDS011;35409;48.776;9.204;2023-05-10T04:16:30;2.97;;;1.35;;
49502;SDS011;35409;48.776;9.204;2023-05-10T04:18:56;1.52;;;0.90;;
49502;SDS011;35409;48.776;9.204;2023-05-10T04:21:22;1.42;;;0.95;;
49502;SDS011;35409;48.776;9.204;2023-05-10T04:23:47;1.40;;;0.98;;
49502;SDS011;35409;48.776;9.204;2023-05-10T04:26:13;1.60;;;0.73;;
49502;SDS011;35409;48.776;9.204;2023-05-10T04:28:39;1.08;;;0.77;;
49502;SDS011;35409;48.776;9.204;2023-05-10T04:31:05;1.88;;;1.00;;
49502;SDS011;35409;48.776;9.204;2023-05-10T04:33:32;1.40;;;1.30;;
49502;SDS011;35409;48.776;9.204;2023-05-10T04:35:59;1.48;;;1.05;;
49502;SDS011;35409;48.776;9.204;2023-05-10T04:38:25;0.80;;;0.80;;
49502;SDS011;35409;48.776;9.204;2023-05-10T04:40:51;1.42;;;1.33;;
49502;SDS011;35409;48.776;9.204;2023-05-10T04:43:17;3.50;;;0.90;;
49502;SDS011;35409;48.776;9.204;2023-05-10T04:45:43;1.17;;;0.90;;
49502;SDS011;35409;48.776;9.204;2023-05-10T04:48:08;0.73;;;0.70;;
49502;SDS011;35409;48.776;9.204;2023-05-10T04:50:34;2.55;;;0.85;;
49502;SDS011;35409;48.776;9.204;2023-05-10T04:53:00;2.67;;;0.80;;
49502;SDS011;35409;48.776;9.204;2023-05-10T04:55:26;1.27;;;0.68;;
49502;SDS011;35409;48.776;9.204;2023-05-10T04:57:52;1.17;;;0.98;;
49502;SDS011;35409;48.776;9.204;2023-05-10T05:00:18;1.15;;;0.80;;
49502;SDS011;35409;48.776;9.204;2023-05-10T05:02:44;2.20;;;1.10;;
49502;SDS011;35409;48.776;9.204;2023-05-10T05:05:10;2.63;;;0.88;;
49502;SDS011;35409;48.776;9.204;2023-05-10T05:07:37;1.45;;;0.95;;
49502;SDS011;35409;48.776;9.204;2023-05-10T05:10:03;1.00;;;0.80;;
49502;SDS011;35409;48.776;9.204;2023-05-10T05:12:30;0.82;;;0.82;;
49502;SDS011;35409;48.776;9.204;2023-05-10T05:14:56;1.10;;;1.00;;
49502;SDS011;35409;48.776;9.204;2023-05-10T05:17:21;2.40;;;1.08;;
49502;SDS011;35409;48.776;9.204;2023-05-10T05:19:47;0.98;;;0.73;;
49502;SDS011;35409;48.776;9.204;2023-05-10T05:22:13;1.98;;;0.82;;
49502;SDS011;35409;48.776;9.204;2023-05-10T05:24:38;1.35;;;1.00;;
49502;SDS011;35409;48.776;9.204;2023-05-10T05:27:04;2.50;;;1.00;;
49502;SDS011;35409;48.776;9.204;2023-05-10T05:29:29;1.40;;;0.77;;
49502;SDS011;35409;48.776;9.204;2023-05-10T05:31:55;2.88;;;0.85;;
49502;SDS011;35409;48.776;9.204;2023-05-10T05:34:21;1.85;;;0.80;;
49502;SDS011;35409;48.776;9.204;2023-05-10T05:36:47;1.17;;;0.80;;
49502;SDS011;35409;48.776;9.204;2023-05-10T05:39:13;2.15;;;0.98;;
49502;SDS011;35409;48.776;9.204;2023-05-10T05:41:38;1.00;;;0.68;;
49502;SDS011;35409;48.776;9.204;2023-05-10T05:44:04;2.00;;;0.90;;
49502;SDS011;35409;48.776;9.204;2023-05-10T05:46:29;3.92;;;0.75;;
49502;SDS011;35409;48.776;9.204;2023-05-10T05:48:55;2.70;;;0.95;;
49502;SDS011;35409;48.776;9.204;2023-05-10T05:51:21;4.63;;;1.00;;
49502;SDS011;35409;48.776;9.204;2023-05-10T05:53:47;1.55;;;0.70;;
49502;SDS011;35409;48.776;9.204;2023-05-10T05:56:13;2.30;;;0.73;;
49502;SDS011;35409;48.776;9.204;2023-05-10T05:58:38;1.27;;;0.85;;
49502;SDS011;35409;48.776;9.204;2023-05-10T06:01:04;3.83;;;1.00;;
49502;SDS011;35409;48.776;9.204;2023-05-10T06:03:30;0.60;;;0.60;;
49502;SDS011;35409;48.776;9.204;2023-05-10T06:05:55;2.13;;;0.80;;
49502;SDS011;35409;48.776;9.204;2023-05-10T06:08:21;2.80;;;1.15;;
49502;SDS011;35409;48.776;9.204;2023-05-10T06:10:47;0.93;;;0.93;;
49502;SDS011;35409;48.776;9.204;2023-05-10T06:13:12;1.15;;;1.05;;
49502;SDS011;35409;48.776;9.204;2023-05-10T06:15:38;1.70;;;1.15;;
49502;SDS011;35409;48.776;9.204;2023-05-10T06:18:04;1.75;;;0.80;;
49502;SDS011;35409;48.776;9.204;2023-05-10T06:20:30;3.55;;;1.10;;
49502;SDS011;35409;48.776;9.204;2023-05-10T06:22:56;1.75;;;0.90;;
49502;SDS011;35409;48.776;9.204;2023-05-10T06:25:22;3.47;;;1.13;;
49502;SDS011;35409;48.776;9.204;2023-05-10T06:27:48;1.05;;;0.95;;
49502;SDS011;35409;48.776;9.204;2023-05-10T06:30:14;2.05;;;0.85;;
49502;SDS011;35409;48.776;9.204;2023-05-10T06:32:40;0.80;;;0.80;;
49502;SDS011;35409;48.776;9.204;2023-05-10T06:35:06;2.88;;;1.17;;
49502;SDS011;35409;48.776;9.204;2023-05-10T06:37:32;1.23;;;1.13;;
49502;SDS011;35409;48.776;9.204;2023-05-10T06:39:59;1.45;;;1.20;;
49502;SDS011;35409;48.776;9.204;2023-05-10T06:42:25;1.75;;;1.20;;
49502;SDS011;35409;48.776;9.204;2023-05-10T06:44:52;2.53;;;1.20;;
49502;SDS011;35409;48.776;9.204;2023-05-10T06:47:17;3.33;;;1.30;;
49502;SDS011;35409;48.776;9.204;2023-05-10T06:49:43;3.08;;;1.00;;
49502;SDS011;35409;48.776;9.204;2023-05-10T06:52:09;5.22;;;1.50;;
49502;SDS011;35409;48.776;9.204;2023-05-10T06:54:34;4.47;;;1.50;;
49502;SDS011;35409;48.776;9.204;2023-05-10T06:57:00;3.20;;;1.35;;
49502;SDS011;35409;48.776;9.204;2023-05-10T06:59:27;2.10;;;1.20;;
49502;SDS011;35409;48.776;9.204;2023-05-10T07:01:53;2.03;;;1.10;;
49502;SDS011;35409;48.776;9.204;2023-05-10T07:04:19;2.58;;;1.20;;
49502;SDS011;35409;48.776;9.204;2023-05-10T07:06:44;4.05;;;1.10;;
49502;SDS011;35409;48.776;9.204;2023-05-10T07:09:11;1.45;;;0.90;;
49502;SDS011;35409;48.776;9.204;2023-05-10T07:11:38;2.22;;;1.10;;
49502;SDS011;35409;48.776;9.204;2023-05-10T07:14:03;1.77;;;1.10;;
49502;SDS011;35409;48.776;9.204;2023-05-10T07:16:29;7.50;;;1.25;;
49502;SDS011;35409;48.776;9.204;2023-05-10T07:18:54;2.85;;;1.05;;
49502;SDS011;35409;48.776;9.204;2023-05-10T07:21:20;2.95;;;0.88;;
49502;SDS011;35409;48.776;9.204;2023-05-10T07:23:48;2.17;;;1.10;;
49502;SDS011;35409;48.776;9.204;2023-05-10T07:26:14;2.90;;;1.20;;
49502;SDS011;35409;48.776;9.204;2023-05-10T07:28:40;1.23;;;0.88;;
49502;SDS011;35409;48.776;9.204;2023-05-10T07:31:06;0.93;;;0.85;;
49502;SDS011;35409;48.776;9.204;2023-05-10T07:33:32;1.73;;;1.10;;
49502;SDS011;35409;48.776;9.204;2023-05-10T07:35:57;2.00;;;0.93;;
49502;SDS011;35409;48.776;9.204;2023-05-10T07:38:23;1.30;;;1.10;;
49502;SDS011;35409;48.776;9.204;2023-05-10T07:40:48;1.50;;;1.00;;
49502;SDS011;35409;48.776;9.204;2023-05-10T07:43:14;3.20;;;1.00;;
49502;SDS011;35409;48.776;9.204;2023-05-10T07:45:39;1.75;;;0.90;;
49502;SDS011;35409;48.776;9.204;2023-05-10T07:48:05;1.77;;;0.80;;
49502;SDS011;35409;48.776;9.204;2023-05-10T07:50:30;0.98;;;0.65;;
49502;SDS011;35409;48.776;9.204;2023-05-10T07:52:56;2.58;;;0.80;;
49502;SDS011;35409;48.776;9.204;2023-05-10T07:55:22;1.30;;;1.10;;
49502;SDS011;35409;48.776;9.204;2023-05-10T07:57:47;2.90;;;0.60;;
49502;SDS011;35409;48.776;9.204;2023-05-10T08:00:13;1.10;;;0.70;;
49502;SDS011;35409;48.776;9.204;2023-05-10T08:02:42;1.92;;;0.77;;
49502;SDS011;35409;48.776;9.204;2023-05-10T08:05:08;0.93;;;0.60;;
49502;SDS011;35409;48.776;9.204;2023-05-10T08:07:34;1.55;;;0.60;;
49502;SDS011;35409;48.776;9.204;2023-05-10T08:10:00;0.77;;;0.65;;
49502;SDS011;35409;48.776;9.204;2023-05-10T08:12:26;0.50;;;0.50;;
49502;SDS011;35409;48.776;9.204;2023-05-10T08:14:52;1.10;;;0.52;;
49502;SDS011;35409;48.776;9.204;2023-05-10T08:17:17;1.25;;;0.70;;
49502;SDS011;35409;48.776;9.204;2023-05-10T08:19:43;6.13;;;0.77;;
49502;SDS011;35409;48.776;9.204;2023-05-10T08:22:08;4.38;;;0.90;;
49502;SDS011;35409;48.776;9.204;2023-05-10T08:24:35;4.07;;;0.60;;
49502;SDS011;35409;48.776;9.204;2023-05-10T08:27:03;0.60;;;0.60;;
49502;SDS011;35409;48.776;9.204;2023-05-10T08:29:32;1.80;;;0.60;;
49502;SDS011;35409;48.776;9.204;2023-05-10T08:31:57;2.80;;;0.95;;
49502;SDS011;35409;48.776;9.204;2023-05-10T08:34:23;4.03;;;1.08;;
49502;SDS011;35409;48.776;9.204;2023-05-10T08:36:49;6.82;;;0.70;;
49502;SDS011;35409;48.776;9.204;2023-05-10T08:39:15;1.05;;;0.63;;
49502;SDS011;35409;48.776;9.204;2023-05-10T08:41:41;0.88;;;0.82;;
49502;SDS011;35409;48.776;9.204;2023-05-10T08:44:09;1.08;;;0.70;;
49502;SDS011;35409;48.776;9.204;2023-05-10T08:46:35;2.50;;;0.75;;
49502;SDS011;35409;48.776;9.204;2023-05-10T08:49:04;1.10;;;0.63;;
49502;SDS011;35409;48.776;9.204;2023-05-10T08:51:35;1.40;;;0.70;;
49502;SDS011;35409;48.776;9.204;2023-05-10T08:54:05;1.58;;;0.70;;
49502;SDS011;35409;48.776;9.204;2023-05-10T08:56:31;1.35;;;0.80;;
49502;SDS011;35409;48.776;9.204;2023-05-10T08:58:57;2.80;;;0.75;;
49502;SDS011;35409;48.776;9.204;2023-05-10T09:01:22;4.65;;;1.10;;
49502;SDS011;35409;48.776;9.204;2023-05-10T09:03:49;2.47;;;0.57;;
49502;SDS011;35409;48.776;9.204;2023-05-10T09:06:15;4.18;;;0.98;;
49502;SDS011;35409;48.776;9.204;2023-05-10T09:08:41;1.40;;;0.50;;
49502;SDS011;35409;48.776;9.204;2023-05-10T09:11:08;2.28;;;0.70;;
49502;SDS011;35409;48.776;9.204;2023-05-10T09:13:35;1.23;;;0.80;;
49502;SDS011;35409;48.776;9.204;2023-05-10T09:16:01;0.85;;;0.60;;
49502;SDS011;35409;48.776;9.204;2023-05-10T09:18:28;3.83;;;0.80;;
49502;SDS011;35409;48.776;9.204;2023-05-10T09:20:54;2.50;;;0.50;;
49502;SDS011;35409;48.776;9.204;2023-05-10T09:23:19;1.27;;;0.57;;
49502;SDS011;35409;48.776;9.204;2023-05-10T09:25:45;1.17;;;0.60;;
49502;SDS011;35409;48.776;9.204;2023-05-10T09:28:11;2.47;;;0.50;;
49502;SDS011;35409;48.776;9.204;2023-05-10T09:30:37;2.95;;;0.50;;
49502;SDS011;35409;48.776;9.204;2023-05-10T09:33:02;3.67;;;1.00;;
49502;SDS011;35409;48.776;9.204;2023-05-10T09:35:29;2.50;;;0.65;;
49502;SDS011;35409;48.776;9.204;2023-05-10T09:37:57;2.55;;;0.50;;
49502;SDS011;35409;48.776;9.204;2023-05-10T09:40:25;1.35;;;0.40;;
49502;SDS011;35409;48.776;9.204;2023-05-10T09:45:34;3.42;;;0.52;;
49502;SDS011;35409;48.776;9.204;2023-05-10T09:48:01;1.02;;;0.43;;
49502;SDS011;35409;48.776;9.204;2023-05-10T09:50:27;0.90;;;0.32;;
49502;SDS011;35409;48.776;9.204;2023-05-10T09:53:00;2.70;;;0.50;;
49502;SDS011;35409;48.776;9.204;2023-05-10T09:55:41;0.68;;;0.50;;
49502;SDS011;35409;48.776;9.204;2023-05-10T09:58:11;2.53;;;0.50;;
49502;SDS011;35409;48.776;9.204;2023-05-10T10:00:38;0.57;;;0.28;;
49502;SDS011;35409;48.776;9.204;2023-05-10T10:03:05;1.77;;;1.00;;
49502;SDS011;35409;48.776;9.204;2023-05-10T10:05:32;0.50;;;0.40;;
49502;SDS011;35409;48.776;9.204;2023-05-10T10:07:59;5.28;;;0.30;;
49502;SDS011;35409;48.776;9.204;2023-05-10T10:10:27;0.77;;;0.40;;
49502;SDS011;35409;48.776;9.204;2023-05-10T10:12:54;2.78;;;0.52;;
49502;SDS011;35409;48.776;9.204;2023-05-10T10:15:20;1.17;;;0.40;;
49502;SDS011;35409;48.776;9.204;2023-05-10T10:17:46;3.35;;;0.40;;
49502;SDS011;35409;48.776;9.204;2023-05-10T10:20:14;0.52;;;0.30;;
49502;SDS011;35409;48.776;9.204;2023-05-10T10:22:40;1.48;;;0.50;;
49502;SDS011;35409;48.776;9.204;2023-05-10T10:25:06;1.02;;;0.30;;
49502;SDS011;35409;48.776;9.204;2023-05-10T10:30:19;0.47;;;0.30;;
49502;SDS011;35409;48.776;9.204;2023-05-10T10:36:01;2.08;;;0.65;;
49502;SDS011;35409;48.776;9.204;2023-05-10T10:38:54;1.42;;;0.50;;
49502;SDS011;35409;48.776;9.204;2023-05-10T10:41:37;2.40;;;0.50;;
49502;SDS011;35409;48.776;9.204;2023-05-10T10:50:02;1.02;;;0.40;;
49502;SDS011;35409;48.776;9.204;2023-05-10T10:52:31;0.40;;;0.35;;
49502;SDS011;35409;48.776;9.204;2023-05-10T10:55:07;0.38;;;0.30;;
49502;SDS011;35409;48.776;9.204;2023-05-10T11:08:08;3.13;;;0.30;;
49502;SDS011;35409;48.776;9.204;2023-05-10T11:10:39;5.32;;;0.55;;
49502;SDS011;35409;48.776;9.204;2023-05-10T11:13:06;1.02;;;0.30;;
49502;SDS011;35409;48.776;9.204;2023-05-10T11:15:33;0.80;;;0.50;;
49502;SDS011;35409;48.776;9.204;2023-05-10T11:18:16;1.20;;;0.45;;
49502;SDS011;35409;48.776;9.204;2023-05-10T11:23:20;2.35;;;0.50;;
49502;SDS011;35409;48.776;9.204;2023-05-10T11:25:46;1.13;;;0.40;;
49502;SDS011;35409;48.776;9.204;2023-05-10T11:28:13;0.40;;;0.30;;
49502;SDS011;35409;48.776;9.204;2023-05-10T11:30:40;1.25;;;0.40;;
49502;SDS011;35409;48.776;9.204;2023-05-10T11:33:06;2.17;;;0.70;;
49502;SDS011;35409;48.776;9.204;2023-05-10T11:35:39;1.42;;;0.40;;
49502;SDS011;35409;48.776;9.204;2023-05-10T11:38:08;2.38;;;0.68;;
49502;SDS011;35409;48.776;9.204;2023-05-10T11:43:01;1.20;;;0.80;;
49502;SDS011;35409;48.776;9.204;2023-05-10T11:45:28;4.60;;;0.50;;
49502;SDS011;35409;48.776;9.204;2023-05-10T11:47:55;1.27;;;1.13;;
49502;SDS011;35409;48.776;9.204;2023-05-10T11:50:21;2.63;;;0.90;;
49502;SDS011;35409;48.776;9.204;2023-05-10T11:52:56;1.30;;;0.50;;
49502;SDS011;35409;48.776;9.204;2023-05-10T11:55:23;3.90;;;0.40;;
49502;SDS011;35409;48.776;9.204;2023-05-10T11:57:55;2.03;;;0.50;;
49502;SDS011;35409;48.776;9.204;2023-05-10T12:00:24;1.35;;;0.65;;
49502;SDS011;35409;48.776;9.204;2023-05-10T12:02:50;2.00;;;0.55;;
49502;SDS011;35409;48.776;9.204;2023-05-10T12:05:16;1.73;;;0.60;;
49502;SDS011;35409;48.776;9.204;2023-05-10T12:07:42;3.20;;;0.80;;
49502;SDS011;35409;48.776;9.204;2023-05-10T12:10:08;1.27;;;0.60;;
49502;SDS011;35409;48.776;9.204;2023-05-10T12:12:43;5.07;;;0.95;;
49502;SDS011;35409;48.776;9.204;2023-05-10T12:15:17;1.83;;;0.60;;
49502;SDS011;35409;48.776;9.204;2023-05-10T12:17:45;2.22;;;0.85;;
49502;SDS011;35409;48.776;9.204;2023-05-10T12:22:47;2.13;;;0.60;;
49502;SDS011;35409;48.776;9.204;2023-05-10T12:25:15;1.15;;;0.60;;
49502;SDS011;35409;48.776;9.204;2023-05-10T12:27:46;1.27;;;0.50;;
49502;SDS011;35409;48.776;9.204;2023-05-10T12:30:26;2.03;;;0.60;;
49502;SDS011;35409;48.776;9.204;2023-05-10T12:32:54;1.60;;;0.80;;
49502;SDS011;35409;48.776;9.204;2023-05-10T12:35:24;1.65;;;0.60;;
49502;SDS011;35409;48.776;9.204;2023-05-10T12:37:50;3.38;;;0.93;;
49502;SDS011;35409;48.776;9.204;2023-05-10T12:40:16;2.47;;;0.85;;
49502;SDS011;35409;48.776;9.204;2023-05-10T12:42:42;2.53;;;0.60;;
49502;SDS011;35409;48.776;9.204;2023-05-10T12:45:09;2.10;;;0.65;;
49502;SDS011;35409;48.776;9.204;2023-05-10T12:47:35;0.93;;;0.65;;
49502;SDS011;35409;48.776;9.204;2023-05-10T12:50:02;1.27;;;0.68;;
49502;SDS011;35409;48.776;9.204;2023-05-10T12:52:29;1.67;;;0.57;;
49502;SDS011;35409;48.776;9.204;2023-05-10T12:54:56;3.60;;;0.65;;
49502;SDS011;35409;48.776;9.204;2023-05-10T12:57:22;1.95;;;0.55;;
49502;SDS011;35409;48.776;9.204;2023-05-10T12:59:48;2.42;;;0.70;;
49502;SDS011;35409;48.776;9.204;2023-05-10T13:02:15;1.30;;;0.52;;
49502;SDS011;35409;48.776;9.204;2023-05-10T13:04:42;1.80;;;0.98;;
49502;SDS011;35409;48.776;9.204;2023-05-10T13:07:09;1.70;;;0.50;;
49502;SDS011;35409;48.776;9.204;2023-05-10T13:09:34;2.28;;;0.63;;
49502;SDS011;35409;48.776;9.204;2023-05-10T13:12:00;1.20;;;0.40;;
49502;SDS011;35409;48.776;9.204;2023-05-10T13:14:26;2.33;;;1.00;;
49502;SDS011;35409;48.776;9.204;2023-05-10T13:16:52;4.05;;;0.90;;
49502;SDS011;35409;48.776;9.204;2023-05-10T13:19:18;6.13;;;0.60;;
49502;SDS011;35409;48.776;9.204;2023-05-10T13:21:44;3.90;;;0.70;;
49502;SDS011;35409;48.776;9.204;2023-05-10T13:24:10;2.17;;;0.80;;
49502;SDS011;35409;48.776;9.204;2023-05-10T13:26:38;0.85;;;0.47;;
49502;SDS011;35409;48.776;9.204;2023-05-10T13:29:05;0.93;;;0.60;;
49502;SDS011;35409;48.776;9.204;2023-05-10T13:31:31;2.45;;;1.20;;
49502;SDS011;35409;48.776;9.204;2023-05-10T13:33:56;6.13;;;0.98;;
49502;SDS011;35409;48.776;9.204;2023-05-10T13:36:22;1.00;;;0.70;;
49502;SDS011;35409;48.776;9.204;2023-05-10T13:38:48;2.42;;;0.88;;
49502;SDS011;35409;48.776;9.204;2023-05-10T13:41:13;1.95;;;0.60;;
49502;SDS011;35409;48.776;9.204;2023-05-10T13:43:39;4.88;;;0.70;;
49502;SDS011;35409;48.776;9.204;2023-05-10T13:46:05;3.17;;;0.70;;
49502;SDS011;35409;48.776;9.204;2023-05-10T13:48:30;3.58;;;1.30;;
49502;SDS011;35409;48.776;9.204;2023-05-10T13:50:56;3.55;;;0.82;;
49502;SDS011;35409;48.776;9.204;2023-05-10T13:53:22;1.95;;;0.60;;
49502;SDS011;35409;48.776;9.204;2023-05-10T13:55:47;6.85;;;0.70;;
49502;SDS011;35409;48.776;9.204;2023-05-10T13:58:13;1.17;;;0.75;;
49502;SDS011;35409;48.776;9.204;2023-05-10T14:00:39;2.20;;;0.70;;
49502;SDS011;35409;48.776;9.204;2023-05-10T14:03:05;3.33;;;0.68;;
49502;SDS011;35409;48.776;9.204;2023-05-10T14:05:31;5.22;;;0.77;;
49502;SDS011;35409;48.776;9.204;2023-05-10T14:07:57;2.17;;;0.70;;
49502;SDS011;35409;48.776;9.204;2023-05-10T14:10:23;2.55;;;0.65;;
49502;SDS011;35409;48.776;9.204;2023-05-10T14:12:49;2.03;;;0.60;;
49502;SDS011;35409;48.776;9.204;2023-05-10T14:15:15;3.22;;;0.77;;
49502;SDS011;35409;48.776;9.204;2023-05-10T14:17:41;2.92;;;0.50;;
49502;SDS011;35409;48.776;9.204;2023-05-10T14:20:06;4.60;;;0.77;;
49502;SDS011;35409;48.776;9.204;2023-05-10T14:22:33;1.77;;;0.77;;
49502;SDS011;35409;48.776;9.204;2023-05-10T14:24:59;2.38;;;0.70;;
49502;SDS011;35409;48.776;9.204;2023-05-10T14:27:25;1.15;;;0.63;;
49502;SDS011;35409;48.776;9.204;2023-05-10T14:29:51;1.90;;;0.60;;
49502;SDS011;35409;48.776;9.204;2023-05-10T14:32:17;5.38;;;0.65;;
49502;SDS011;35409;48.776;9.204;2023-05-10T14:34:42;2.92;;;0.80;;
49502;SDS011;35409;48.776;9.204;2023-05-10T14:37:10;3.20;;;0.50;;
49502;SDS011;35409;48.776;9.204;2023-05-10T14:39:36;3.70;;;0.63;;
49502;SDS011;35409;48.776;9.204;2023-05-10T14:42:02;1.58;;;0.70;;
49502;SDS011;35409;48.776;9.204;2023-05-10T14:44:28;1.63;;;0.63;;
49502;SDS011;35409;48.776;9.204;2023-05-10T14:46:54;2.97;;;0.60;;
49502;SDS011;35409;48.776;9.204;2023-05-10T14:49:21;3.95;;;0.60;;
49502;SDS011;35409;48.776;9.204;2023-05-10T14:51:47;3.80;;;0.85;;
49502;SDS011;35409;48.776;9.204;2023-05-10T14:54:13;1.83;;;0.70;;
49502;SDS011;35409;48.776;9.204;2023-05-10T14:56:39;5.50;;;0.63;;
49502;SDS011;35409;48.776;9.204;2023-05-10T14:59:06;2.83;;;0.90;;
49502;SDS011;35409;48.776;9.204;2023-05-10T15:01:32;2.08;;;0.60;;
49502;SDS011;35409;48.776;9.204;2023-05-10T15:04:00;0.50;;;0.50;;
49502;SDS011;35409;48.776;9.204;2023-05-10T15:06:31;1.65;;;0.60;;
49502;SDS011;35409;48.776;9.204;2023-05-10T15:08:58;3.85;;;0.57;;
49502;SDS011;35409;48.776;9.204;2023-05-10T15:11:25;2.97;;;0.63;;
49502;SDS011;35409;48.776;9.204;2023-05-10T15:13:50;2.83;;;0.68;;
49502;SDS011;35409;48.776;9.204;2023-05-10T15:16:16;0.93;;;0.80;;
49502;SDS011;35409;48.776;9.204;2023-05-10T15:18:42;2.38;;;0.55;;
49502;SDS011;35409;48.776;9.204;2023-05-10T15:21:07;1.88;;;0.60;;
49502;SDS011;35409;48.776;9.204;2023-05-10T15:23:33;1.50;;;0.70;;
49502;SDS011;35409;48.776;9.204;2023-05-10T15:25:59;2.55;;;0.65;;
49502;SDS011;35409;48.776;9.204;2023-05-10T15:28:25;2.63;;;0.50;;
49502;SDS011;35409;48.776;9.204;2023-05-10T15:30:51;1.58;;;0.60;;
49502;SDS011;35409;48.776;9.204;2023-05-10T15:33:16;2.10;;;0.47;;
49502;SDS011;35409;48.776;9.204;2023-05-10T15:35:42;0.95;;;0.60;;
49502;SDS011;35409;48.776;9.204;2023-05-10T15:38:08;1.27;;;0.50;;
49502;SDS011;35409;48.776;9.204;2023-05-10T15:40:34;2.28;;;0.47;;
49502;SDS011;35409;48.776;9.204;2023-05-10T15:43:00;0.88;;;0.40;;
49502;SDS011;35409;48.776;9.204;2023-05-10T15:45:25;2.90;;;0.50;;
49502;SDS011;35409;48.776;9.204;2023-05-10T15:47:51;0.90;;;0.50;;